createdAt,value
2022-10-02T00:01:44.033Z,99623.47
2022-10-02T00:06:48.479Z,99624.34
2022-10-02T00:11:54.258Z,99631.41
2022-10-02T00:16:58.634Z,99630.94
2022-10-02T00:22:04.154Z,99628.94
2022-10-02T00:27:18.863Z,99632.34
2022-10-02T00:32:33.105Z,99624.63
2022-10-02T00:37:53.665Z,99621.09
2022-10-02T00:43:17.903Z,99634.09
2022-10-02T00:48:32.012Z,99639.47
2022-10-02T00:53:52.819Z,99640.34
2022-10-02T00:59:30.494Z,99646.91
2022-10-02T01:04:35.461Z,99654.81
2022-10-02T01:09:38.740Z,99653.88
2022-10-02T01:14:41.646Z,99665.97
2022-10-02T01:19:44.012Z,99665.00
2022-10-02T01:24:53.613Z,99667.00
2022-10-02T01:30:00.625Z,99674.22
2022-10-02T01:35:03.245Z,99687.97
2022-10-02T01:40:11.655Z,99687.38
2022-10-02T01:45:14.293Z,99688.00
2022-10-02T01:50:25.352Z,99694.41
2022-10-02T01:55:33.551Z,99690.56
2022-10-02T02:00:52.827Z,99694.81
2022-10-02T02:06:07.927Z,99697.94
2022-10-02T02:11:18.953Z,99698.88
2022-10-02T02:16:46.816Z,99702.06
2022-10-02T02:22:04.479Z,99716.22
2022-10-02T02:27:08.048Z,99715.81
2022-10-02T02:32:11.653Z,99713.50
2022-10-02T02:37:19.254Z,99716.44
2022-10-02T02:42:25.856Z,99718.59
2022-10-02T02:47:35.127Z,99736.06
2022-10-02T02:52:45.773Z,99732.56
2022-10-02T02:57:56.532Z,99727.03
2022-10-02T03:02:58.990Z,99736.78
2022-10-02T03:08:04.615Z,99741.22
2022-10-02T03:13:21.994Z,99737.78
2022-10-02T03:18:37.687Z,99737.78
2022-10-02T03:24:01.831Z,99737.63
2022-10-02T03:29:09.615Z,99733.09
2022-10-02T03:34:12.636Z,99743.75
2022-10-02T03:39:30.471Z,99737.91
2022-10-02T03:44:32.726Z,99734.59
2022-10-02T03:49:35.333Z,99755.16
2022-10-02T03:54:38.001Z,99755.06
2022-10-02T04:00:02.182Z,99761.38
2022-10-02T04:05:29.958Z,99763.78
2022-10-02T04:10:41.335Z,99767.00
2022-10-02T04:15:52.836Z,99776.34
2022-10-02T04:21:07.905Z,99774.53
2022-10-02T04:26:20.631Z,99776.53
2022-10-02T04:31:27.491Z,99781.41
2022-10-02T04:36:41.349Z,99777.63
2022-10-02T04:42:06.107Z,99799.72
2022-10-02T04:47:11.315Z,99807.53
2022-10-02T04:52:25.165Z,99810.13
2022-10-02T04:58:00.428Z,99811.97
2022-10-02T05:03:14.791Z,99808.31
2022-10-02T05:08:19.846Z,99824.13
2022-10-02T05:13:55.390Z,99830.75
2022-10-02T05:19:29.934Z,99835.41
2022-10-02T05:24:32.878Z,99835.50
2022-10-02T05:30:05.312Z,99840.81
2022-10-02T05:35:16.758Z,99846.94
2022-10-02T05:40:23.015Z,99849.34
2022-10-02T05:45:53.749Z,99847.13
2022-10-02T05:51:04.450Z,99851.22
2022-10-02T05:56:12.403Z,99849.75
2022-10-02T06:01:20.095Z,99850.66
2022-10-02T06:06:54.424Z,99856.56
2022-10-02T06:12:00.696Z,99860.31
2022-10-02T06:17:16.114Z,99863.63
2022-10-02T06:22:30.763Z,99861.00
2022-10-02T06:27:48.533Z,99866.50
2022-10-02T06:33:02.118Z,99868.75
2022-10-02T06:38:17.046Z,99873.44
2022-10-02T06:43:22.041Z,99868.03
2022-10-02T06:48:33.847Z,99872.66
2022-10-02T06:53:57.284Z,99877.25
2022-10-02T06:59:31.786Z,99885.63
2022-10-02T07:04:42.306Z,99881.97
2022-10-02T07:10:18.677Z,99881.66
2022-10-02T07:15:31.538Z,99900.78
2022-10-02T07:21:15.765Z,99892.44
2022-10-02T07:26:43.241Z,99892.19
2022-10-02T07:31:46.276Z,99894.41
2022-10-02T07:37:15.085Z,99891.41
2022-10-02T07:42:30.724Z,99903.84
2022-10-02T07:47:43.227Z,99896.44
2022-10-02T07:53:06.513Z,99891.28
2022-10-02T07:58:19.281Z,99900.50
2022-10-02T08:03:52.713Z,99893.41
2022-10-02T08:08:55.076Z,99906.53
2022-10-02T08:14:03.570Z,99900.66
2022-10-02T08:19:14.580Z,99898.44
2022-10-02T08:24:26.849Z,99912.06
2022-10-02T08:29:53.943Z,99912.56
2022-10-02T08:34:56.686Z,99911.34
2022-10-02T08:40:23.951Z,99912.41
2022-10-02T08:45:47.541Z,99911.75
2022-10-02T08:51:10.117Z,99911.13
2022-10-02T08:56:34.318Z,99907.66
2022-10-02T09:02:31.430Z,99912.31
2022-10-02T09:08:09.985Z,99915.06
2022-10-02T09:13:30.758Z,99902.66
2022-10-02T09:18:48.280Z,99897.59
2022-10-02T09:24:02.794Z,99917.34
2022-10-02T09:29:35.138Z,99924.94
2022-10-02T09:34:52.276Z,99913.31
2022-10-02T09:40:06.914Z,99914.63
2022-10-02T09:45:36.597Z,99917.56
2022-10-02T09:51:18.582Z,99915.25
2022-10-02T09:56:45.663Z,99915.13
2022-10-02T10:02:03.918Z,99913.66
2022-10-02T10:07:52.528Z,99915.91
2022-10-02T10:13:22.396Z,99924.13
2022-10-02T10:18:51.997Z,99918.59
2022-10-02T10:23:54.351Z,99915.31
2022-10-02T10:29:07.712Z,99924.88
2022-10-02T10:34:46.305Z,99910.88
2022-10-02T10:40:25.072Z,99917.19
2022-10-02T10:45:29.809Z,99917.69
2022-10-02T10:50:46.813Z,99921.88
2022-10-02T10:55:52.143Z,99917.59
2022-10-02T11:01:18.937Z,99928.47
2022-10-02T11:06:38.956Z,99916.22
2022-10-02T11:11:45.141Z,99926.38
2022-10-02T11:17:05.798Z,99920.66
2022-10-02T11:22:17.062Z,99921.03
2022-10-02T11:27:39.350Z,99924.19
2022-10-02T11:33:16.792Z,99917.25
2022-10-02T11:39:00.811Z,99928.88
2022-10-02T11:44:16.957Z,99924.63
2022-10-02T11:49:37.853Z,99919.44
2022-10-02T11:54:59.856Z,99914.81
2022-10-02T12:00:13.498Z,99903.44
2022-10-02T12:05:25.583Z,99926.63
2022-10-02T12:10:46.558Z,99923.13
2022-10-02T12:16:04.107Z,99920.78
2022-10-02T12:21:40.043Z,99925.81
2022-10-02T12:26:59.082Z,99922.34
2022-10-02T12:32:10.966Z,99919.16
2022-10-02T12:37:25.830Z,99917.50
2022-10-02T12:42:41.145Z,99902.56
2022-10-02T12:48:00.601Z,99900.34
2022-10-02T12:53:17.889Z,99901.72
2022-10-02T12:58:29.554Z,99888.03
2022-10-02T13:03:44.125Z,99879.22
2022-10-02T13:08:55.386Z,99878.28
2022-10-02T13:14:07.478Z,99872.94
2022-10-02T13:19:22.042Z,99863.41
2022-10-02T13:24:46.892Z,99862.94
2022-10-02T13:30:00.454Z,99858.56
2022-10-02T13:35:25.567Z,99854.53
2022-10-02T13:40:29.653Z,99844.41
2022-10-02T13:45:42.280Z,99856.88
2022-10-02T13:50:56.830Z,99860.09
2022-10-02T13:56:34.548Z,99859.47
2022-10-02T14:02:10.605Z,99843.63
2022-10-02T14:07:28.715Z,99849.66
2022-10-02T14:12:55.771Z,99841.63
2022-10-02T14:18:07.266Z,99836.25
2022-10-02T14:23:30.597Z,99842.41
2022-10-02T14:28:57.170Z,99829.97
2022-10-02T14:34:57.826Z,99842.88
2022-10-02T14:40:02.371Z,99835.56
2022-10-02T14:45:19.318Z,99833.22
2022-10-02T14:51:09.733Z,99838.72
2022-10-02T14:56:23.760Z,99843.19
2022-10-02T15:01:27.080Z,99829.81
2022-10-02T15:06:35.187Z,99838.03
2022-10-02T15:11:37.758Z,99837.25
2022-10-02T15:17:20.849Z,99846.41
2022-10-02T15:22:27.088Z,99849.00
2022-10-02T15:27:44.802Z,99848.56
2022-10-02T15:33:03.484Z,99857.47
2022-10-02T15:38:31.500Z,99856.13
2022-10-02T15:43:39.357Z,99853.28
2022-10-02T15:49:36.806Z,99869.09
2022-10-02T15:54:57.591Z,99864.34
2022-10-02T16:00:10.863Z,99877.31
2022-10-02T16:05:40.425Z,99872.34
2022-10-02T16:11:26.638Z,99873.75
2022-10-02T16:17:07.683Z,99870.38
2022-10-02T16:22:17.930Z,99882.53
2022-10-02T16:27:51.521Z,99881.28
2022-10-02T16:33:23.846Z,99890.28
2022-10-02T16:38:41.144Z,99897.84
2022-10-02T16:43:49.251Z,99886.63
2022-10-02T16:48:51.906Z,99897.28
2022-10-02T16:54:37.191Z,99905.75
2022-10-02T16:59:45.030Z,99908.25
2022-10-02T17:05:12.442Z,99910.59
2022-10-02T17:10:22.077Z,99915.72
2022-10-02T17:15:33.544Z,99917.09
2022-10-02T17:20:47.296Z,99919.31
2022-10-02T17:26:01.523Z,99914.78
2022-10-02T17:31:34.693Z,99920.78
2022-10-02T17:36:54.619Z,99913.13
2022-10-02T17:42:10.048Z,99918.34
2022-10-02T17:47:38.347Z,99932.75
2022-10-02T17:53:05.271Z,99931.53
2022-10-02T17:58:37.749Z,99945.50
2022-10-02T18:03:48.947Z,99939.78
2022-10-02T18:09:00.013Z,99937.22
2022-10-02T18:14:11.443Z,99938.00
2022-10-02T18:19:18.396Z,99927.78
2022-10-02T18:24:42.824Z,99929.34
2022-10-02T18:30:09.775Z,99923.34
2022-10-02T18:35:22.191Z,99921.41
2022-10-02T18:40:56.215Z,99924.81
2022-10-02T18:46:07.808Z,99938.06
2022-10-02T18:51:39.406Z,99932.16
2022-10-02T18:56:46.835Z,99940.03
2022-10-02T19:02:02.640Z,99937.31
2022-10-02T19:07:16.676Z,99929.63
2022-10-02T19:12:25.565Z,99931.50
2022-10-02T19:17:31.026Z,99937.41
2022-10-02T19:22:38.587Z,99941.28
2022-10-02T19:27:42.290Z,99932.34
2022-10-02T19:32:48.976Z,99935.63
2022-10-02T19:37:53.133Z,99933.09
2022-10-02T19:43:04.827Z,99927.19
2022-10-02T19:48:09.993Z,99933.19
2022-10-02T19:53:24.390Z,99935.06
2022-10-02T19:58:49.917Z,99933.53
2022-10-02T20:03:57.351Z,99936.81
2022-10-02T20:09:13.399Z,99934.59
2022-10-02T20:14:19.392Z,99925.44
2022-10-02T20:19:26.482Z,99925.97
2022-10-02T20:24:59.470Z,99915.13
2022-10-02T20:30:12.894Z,99920.03
2022-10-02T20:35:35.686Z,99924.38
2022-10-02T20:40:38.313Z,99921.78
2022-10-02T20:45:53.143Z,99926.31
2022-10-02T20:51:09.993Z,99932.13
2022-10-02T20:56:43.254Z,99924.53
2022-10-02T21:02:21.182Z,99918.72
2022-10-02T21:07:54.178Z,99918.47
2022-10-02T21:13:24.557Z,99912.53
2022-10-02T21:18:35.590Z,99914.44
2022-10-02T21:23:46.801Z,99910.09
2022-10-02T21:29:10.461Z,99903.75
2022-10-02T21:34:44.305Z,99915.19
2022-10-02T21:39:49.501Z,99911.47
2022-10-02T21:45:13.971Z,99906.84
2022-10-02T21:50:50.834Z,99908.22
2022-10-02T21:56:15.006Z,99900.63
2022-10-02T22:01:42.582Z,99903.31
2022-10-02T22:07:06.725Z,99901.47
2022-10-02T22:12:24.537Z,99900.06
2022-10-02T22:17:29.360Z,99894.13
2022-10-02T22:22:40.214Z,99898.44
2022-10-02T22:27:45.524Z,99893.53
2022-10-02T22:33:09.296Z,99896.28
2022-10-02T22:38:26.165Z,99887.84
2022-10-02T22:43:32.844Z,99893.56
2022-10-02T22:48:57.901Z,99890.28
2022-10-02T22:54:12.094Z,99888.66
2022-10-02T22:59:22.507Z,99871.28
2022-10-02T23:04:33.438Z,99878.03
2022-10-02T23:10:01.433Z,99877.03
2022-10-02T23:15:06.804Z,99884.84
2022-10-02T23:20:14.438Z,99867.13
2022-10-02T23:25:31.295Z,99865.94
2022-10-02T23:30:38.707Z,99870.78
2022-10-02T23:35:49.986Z,99881.88
2022-10-02T23:41:47.135Z,99875.34
2022-10-02T23:46:49.407Z,99863.09
2022-10-02T23:52:31.672Z,99857.13
2022-10-02T23:57:54.796Z,99855.75
